sensor_id;sensor_type;location;lat;lon;timestamp;P1;durP1;ratioP1;P2;durP2;ratioP2
50102;SDS011;35993;52.604;10.078;2023-03-23T00:02:23;6.65;;;2.60;;
50102;SDS011;35993;52.604;10.078;2023-03-23T00:04:53;6.85;;;1.90;;
50102;SDS011;35993;52.604;10.078;2023-03-23T00:07:22;4.13;;;1.77;;
50102;SDS011;35993;52.604;10.078;2023-03-23T00:09:52;3.95;;;2.40;;
50102;SDS011;35993;52.604;10.078;2023-03-23T00:12:23;3.95;;;1.80;;
50102;SDS011;35993;52.604;10.078;2023-03-23T00:14:57;2.65;;;1.65;;
50102;SDS011;35993;52.604;10.078;2023-03-23T00:17:22;2.95;;;1.73;;
50102;SDS011;35993;52.604;10.078;2023-03-23T00:19:48;4.97;;;1.52;;
50102;SDS011;35993;52.604;10.078;2023-03-23T00:22:15;4.30;;;1.55;;
50102;SDS011;35993;52.604;10.078;2023-03-23T00:24:42;3.92;;;1.70;;
50102;SDS011;35993;52.604;10.078;2023-03-23T00:27:09;3.63;;;1.60;;
50102;SDS011;35993;52.604;10.078;2023-03-23T00:29:38;3.28;;;1.38;;
50102;SDS011;35993;52.604;10.078;2023-03-23T00:32:05;6.03;;;1.85;;
50102;SDS011;35993;52.604;10.078;2023-03-23T00:34:31;5.10;;;1.92;;
50102;SDS011;35993;52.604;10.078;2023-03-23T00:36:59;4.18;;;1.45;;
50102;SDS011;35993;52.604;10.078;2023-03-23T00:39:26;4.75;;;1.70;;
50102;SDS011;35993;52.604;10.078;2023-03-23T00:41:53;2.83;;;1.65;;
50102;SDS011;35993;52.604;10.078;2023-03-23T00:44:32;3.15;;;1.77;;
50102;SDS011;35993;52.604;10.078;2023-03-23T00:47:00;3.53;;;2.00;;
50102;SDS011;35993;52.604;10.078;2023-03-23T00:49:27;3.75;;;1.73;;
50102;SDS011;35993;52.604;10.078;2023-03-23T00:51:53;5.80;;;1.90;;
50102;SDS011;35993;52.604;10.078;2023-03-23T00:54:21;3.50;;;1.80;;
50102;SDS011;35993;52.604;10.078;2023-03-23T00:56:48;5.55;;;2.63;;
50102;SDS011;35993;52.604;10.078;2023-03-23T00:59:14;2.85;;;1.65;;
50102;SDS011;35993;52.604;10.078;2023-03-23T01:01:40;3.35;;;1.80;;
50102;SDS011;35993;52.604;10.078;2023-03-23T01:04:06;5.32;;;2.00;;
50102;SDS011;35993;52.604;10.078;2023-03-23T01:06:34;5.60;;;1.75;;
50102;SDS011;35993;52.604;10.078;2023-03-23T01:09:04;4.78;;;1.80;;
50102;SDS011;35993;52.604;10.078;2023-03-23T01:11:31;4.75;;;1.98;;
50102;SDS011;35993;52.604;10.078;2023-03-23T01:13:57;3.92;;;1.75;;
50102;SDS011;35993;52.604;10.078;2023-03-23T01:16:23;6.13;;;2.25;;
50102;SDS011;35993;52.604;10.078;2023-03-23T01:18:49;4.10;;;2.13;;
50102;SDS011;35993;52.604;10.078;2023-03-23T01:21:16;5.50;;;2.13;;
50102;SDS011;35993;52.604;10.078;2023-03-23T01:23:44;4.85;;;2.38;;
50102;SDS011;35993;52.604;10.078;2023-03-23T01:26:11;5.28;;;2.58;;
50102;SDS011;35993;52.604;10.078;2023-03-23T01:28:38;5.22;;;2.17;;
50102;SDS011;35993;52.604;10.078;2023-03-23T01:31:06;6.97;;;2.47;;
50102;SDS011;35993;52.604;10.078;2023-03-23T01:33:34;5.88;;;2.53;;
50102;SDS011;35993;52.604;10.078;2023-03-23T01:36:07;5.70;;;2.33;;
50102;SDS011;35993;52.604;10.078;2023-03-23T01:38:36;5.43;;;2.65;;
50102;SDS011;35993;52.604;10.078;2023-03-23T01:41:02;5.07;;;2.58;;
50102;SDS011;35993;52.604;10.078;2023-03-23T01:43:28;4.95;;;2.50;;
50102;SDS011;35993;52.604;10.078;2023-03-23T01:45:54;5.13;;;2.47;;
50102;SDS011;35993;52.604;10.078;2023-03-23T01:48:23;3.92;;;2.50;;
50102;SDS011;35993;52.604;10.078;2023-03-23T01:50:59;5.95;;;2.95;;
50102;SDS011;35993;52.604;10.078;2023-03-23T01:53:39;7.85;;;2.80;;
50102;SDS011;35993;52.604;10.078;2023-03-23T01:56:08;5.90;;;2.70;;
50102;SDS011;35993;52.604;10.078;2023-03-23T01:58:39;4.25;;;2.35;;
50102;SDS011;35993;52.604;10.078;2023-03-23T02:01:10;5.35;;;2.83;;
50102;SDS011;35993;52.604;10.078;2023-03-23T02:03:42;4.93;;;2.70;;
50102;SDS011;35993;52.604;10.078;2023-03-23T02:06:10;4.03;;;2.83;;
50102;SDS011;35993;52.604;10.078;2023-03-23T02:08:56;5.57;;;2.72;;
50102;SDS011;35993;52.604;10.078;2023-03-23T02:11:22;4.57;;;2.65;;
50102;SDS011;35993;52.604;10.078;2023-03-23T02:13:48;5.22;;;2.38;;
50102;SDS011;35993;52.604;10.078;2023-03-23T02:30:53;5.00;;;2.60;;
50102;SDS011;35993;52.604;10.078;2023-03-23T02:36:23;5.60;;;2.30;;
50102;SDS011;35993;52.604;10.078;2023-03-23T02:41:27;5.45;;;2.40;;
50102;SDS011;35993;52.604;10.078;2023-03-23T02:44:02;5.50;;;2.78;;
50102;SDS011;35993;52.604;10.078;2023-03-23T02:46:28;5.35;;;2.50;;
50102;SDS011;35993;52.604;10.078;2023-03-23T02:48:55;4.13;;;2.58;;
50102;SDS011;35993;52.604;10.078;2023-03-23T02:51:22;4.47;;;2.65;;
50102;SDS011;35993;52.604;10.078;2023-03-23T02:53:50;5.65;;;2.72;;
50102;SDS011;35993;52.604;10.078;2023-03-23T02:56:18;5.15;;;2.60;;
50102;SDS011;35993;52.604;10.078;2023-03-23T02:58:45;6.57;;;2.85;;
50102;SDS011;35993;52.604;10.078;2023-03-23T03:03:58;6.10;;;2.85;;
50102;SDS011;35993;52.604;10.078;2023-03-23T03:06:30;6.55;;;2.67;;
50102;SDS011;35993;52.604;10.078;2023-03-23T03:17:56;8.02;;;2.72;;
50102;SDS011;35993;52.604;10.078;2023-03-23T03:20:43;4.00;;;2.53;;
50102;SDS011;35993;52.604;10.078;2023-03-23T03:25:42;5.43;;;2.22;;
50102;SDS011;35993;52.604;10.078;2023-03-23T03:28:19;6.50;;;2.40;;
50102;SDS011;35993;52.604;10.078;2023-03-23T03:30:49;3.85;;;2.20;;
50102;SDS011;35993;52.604;10.078;2023-03-23T03:33:20;6.35;;;2.50;;
50102;SDS011;35993;52.604;10.078;2023-03-23T03:35:55;3.97;;;2.50;;
50102;SDS011;35993;52.604;10.078;2023-03-23T03:38:24;5.25;;;2.53;;
50102;SDS011;35993;52.604;10.078;2023-03-23T03:40:53;4.57;;;2.30;;
50102;SDS011;35993;52.604;10.078;2023-03-23T03:43:22;4.55;;;2.30;;
50102;SDS011;35993;52.604;10.078;2023-03-23T03:45:47;7.43;;;2.05;;
50102;SDS011;35993;52.604;10.078;2023-03-23T03:48:13;5.10;;;2.38;;
50102;SDS011;35993;52.604;10.078;2023-03-23T03:50:38;4.25;;;2.38;;
50102;SDS011;35993;52.604;10.078;2023-03-23T03:53:04;5.90;;;2.50;;
50102;SDS011;35993;52.604;10.078;2023-03-23T03:55:31;5.55;;;2.22;;
50102;SDS011;35993;52.604;10.078;2023-03-23T03:58:02;4.05;;;2.50;;
50102;SDS011;35993;52.604;10.078;2023-03-23T04:00:49;5.20;;;2.60;;
50102;SDS011;35993;52.604;10.078;2023-03-23T04:03:20;4.82;;;2.40;;
50102;SDS011;35993;52.604;10.078;2023-03-23T04:06:04;4.65;;;2.35;;
50102;SDS011;35993;52.604;10.078;2023-03-23T04:08:32;5.78;;;2.80;;
50102;SDS011;35993;52.604;10.078;2023-03-23T04:10:58;4.57;;;3.03;;
50102;SDS011;35993;52.604;10.078;2023-03-23T04:13:24;4.63;;;2.67;;
50102;SDS011;35993;52.604;10.078;2023-03-23T04:16:13;5.72;;;2.50;;
50102;SDS011;35993;52.604;10.078;2023-03-23T04:18:42;4.35;;;2.33;;
50102;SDS011;35993;52.604;10.078;2023-03-23T04:21:08;4.15;;;2.30;;
50102;SDS011;35993;52.604;10.078;2023-03-23T04:23:35;6.10;;;2.45;;
50102;SDS011;35993;52.604;10.078;2023-03-23T04:26:03;6.15;;;2.55;;
50102;SDS011;35993;52.604;10.078;2023-03-23T04:28:39;4.70;;;2.70;;
50102;SDS011;35993;52.604;10.078;2023-03-23T04:31:24;6.15;;;2.55;;
50102;SDS011;35993;52.604;10.078;2023-03-23T04:33:54;3.97;;;2.45;;
50102;SDS011;35993;52.604;10.078;2023-03-23T04:36:22;4.72;;;2.70;;
50102;SDS011;35993;52.604;10.078;2023-03-23T04:39:00;5.05;;;2.50;;
50102;SDS011;35993;52.604;10.078;2023-03-23T04:41:29;4.18;;;2.45;;
50102;SDS011;35993;52.604;10.078;2023-03-23T04:44:14;4.05;;;2.50;;
50102;SDS011;35993;52.604;10.078;2023-03-23T04:46:45;6.47;;;2.37;;
50102;SDS011;35993;52.604;10.078;2023-03-23T04:49:16;5.05;;;2.50;;
50102;SDS011;35993;52.604;10.078;2023-03-23T04:51:47;6.05;;;2.60;;
50102;SDS011;35993;52.604;10.078;2023-03-23T04:54:32;4.22;;;2.30;;
50102;SDS011;35993;52.604;10.078;2023-03-23T04:57:00;4.57;;;2.05;;
50102;SDS011;35993;52.604;10.078;2023-03-23T04:59:26;4.68;;;1.98;;
50102;SDS011;35993;52.604;10.078;2023-03-23T05:02:19;4.00;;;2.17;;
50102;SDS011;35993;52.604;10.078;2023-03-23T05:04:46;4.75;;;2.30;;
50102;SDS011;35993;52.604;10.078;2023-03-23T05:07:18;4.78;;;2.30;;
50102;SDS011;35993;52.604;10.078;2023-03-23T05:09:47;5.07;;;2.95;;
50102;SDS011;35993;52.604;10.078;2023-03-23T05:12:14;5.63;;;2.60;;
50102;SDS011;35993;52.604;10.078;2023-03-23T05:14:51;4.68;;;2.47;;
50102;SDS011;35993;52.604;10.078;2023-03-23T05:17:19;4.28;;;2.33;;
50102;SDS011;35993;52.604;10.078;2023-03-23T05:19:47;5.15;;;2.60;;
50102;SDS011;35993;52.604;10.078;2023-03-23T05:22:35;5.47;;;2.40;;
50102;SDS011;35993;52.604;10.078;2023-03-23T05:25:03;5.82;;;2.60;;
50102;SDS011;35993;52.604;10.078;2023-03-23T05:27:32;6.93;;;2.58;;
50102;SDS011;35993;52.604;10.078;2023-03-23T05:30:04;5.05;;;2.22;;
50102;SDS011;35993;52.604;10.078;2023-03-23T05:32:32;3.53;;;2.40;;
50102;SDS011;35993;52.604;10.078;2023-03-23T05:35:11;7.38;;;2.78;;
50102;SDS011;35993;52.604;10.078;2023-03-23T05:37:37;5.45;;;2.40;;
50102;SDS011;35993;52.604;10.078;2023-03-23T05:40:08;4.47;;;2.17;;
50102;SDS011;35993;52.604;10.078;2023-03-23T05:42:40;3.70;;;2.30;;
50102;SDS011;35993;52.604;10.078;2023-03-23T05:45:14;3.60;;;2.15;;
50102;SDS011;35993;52.604;10.078;2023-03-23T05:47:40;3.60;;;2.15;;
50102;SDS011;35993;52.604;10.078;2023-03-23T05:50:11;3.55;;;2.00;;
50102;SDS011;35993;52.604;10.078;2023-03-23T05:52:38;2.90;;;1.80;;
50102;SDS011;35993;52.604;10.078;2023-03-23T05:55:07;3.28;;;2.00;;
50102;SDS011;35993;52.604;10.078;2023-03-23T05:57:35;3.58;;;2.00;;
50102;SDS011;35993;52.604;10.078;2023-03-23T06:00:05;5.07;;;2.20;;
50102;SDS011;35993;52.604;10.078;2023-03-23T06:02:47;4.47;;;2.00;;
50102;SDS011;35993;52.604;10.078;2023-03-23T06:05:19;3.75;;;2.05;;
50102;SDS011;35993;52.604;10.078;2023-03-23T06:07:49;4.00;;;2.13;;
50102;SDS011;35993;52.604;10.078;2023-03-23T06:10:14;2.85;;;1.90;;
50102;SDS011;35993;52.604;10.078;2023-03-23T06:12:45;4.43;;;1.85;;
50102;SDS011;35993;52.604;10.078;2023-03-23T06:15:36;4.25;;;2.17;;
50102;SDS011;35993;52.604;10.078;2023-03-23T06:18:12;2.80;;;1.60;;
50102;SDS011;35993;52.604;10.078;2023-03-23T06:20:45;4.47;;;1.77;;
50102;SDS011;35993;52.604;10.078;2023-03-23T06:23:23;3.50;;;1.75;;
50102;SDS011;35993;52.604;10.078;2023-03-23T06:25:53;4.10;;;1.70;;
50102;SDS011;35993;52.604;10.078;2023-03-23T06:28:19;4.53;;;1.88;;
50102;SDS011;35993;52.604;10.078;2023-03-23T06:30:47;4.38;;;1.83;;
50102;SDS011;35993;52.604;10.078;2023-03-23T06:33:13;4.00;;;1.75;;
50102;SDS011;35993;52.604;10.078;2023-03-23T06:36:02;4.78;;;1.75;;
50102;SDS011;35993;52.604;10.078;2023-03-23T06:38:41;3.20;;;1.70;;
50102;SDS011;35993;52.604;10.078;2023-03-23T06:41:08;3.90;;;1.80;;
50102;SDS011;35993;52.604;10.078;2023-03-23T06:43:34;2.47;;;1.50;;
50102;SDS011;35993;52.604;10.078;2023-03-23T06:46:23;5.85;;;1.85;;
50102;SDS011;35993;52.604;10.078;2023-03-23T06:48:49;3.65;;;1.70;;
50102;SDS011;35993;52.604;10.078;2023-03-23T06:51:18;3.15;;;1.70;;
50102;SDS011;35993;52.604;10.078;2023-03-23T06:53:48;2.85;;;1.70;;
50102;SDS011;35993;52.604;10.078;2023-03-23T06:56:13;2.78;;;1.55;;
50102;SDS011;35993;52.604;10.078;2023-03-23T06:58:41;4.80;;;1.33;;
50102;SDS011;35993;52.604;10.078;2023-03-23T07:01:11;2.92;;;1.63;;
50102;SDS011;35993;52.604;10.078;2023-03-23T07:03:41;3.83;;;1.63;;
50102;SDS011;35993;52.604;10.078;2023-03-23T07:06:09;3.75;;;1.45;;
50102;SDS011;35993;52.604;10.078;2023-03-23T07:08:42;2.33;;;1.35;;
50102;SDS011;35993;52.604;10.078;2023-03-23T07:11:12;2.65;;;1.20;;
50102;SDS011;35993;52.604;10.078;2023-03-23T07:13:39;3.03;;;1.33;;
50102;SDS011;35993;52.604;10.078;2023-03-23T07:16:05;5.25;;;1.50;;
50102;SDS011;35993;52.604;10.078;2023-03-23T07:18:32;1.95;;;1.20;;
50102;SDS011;35993;52.604;10.078;2023-03-23T07:20:59;2.83;;;1.40;;
50102;SDS011;35993;52.604;10.078;2023-03-23T07:23:29;2.97;;;1.58;;
50102;SDS011;35993;52.604;10.078;2023-03-23T07:26:00;4.15;;;1.52;;
50102;SDS011;35993;52.604;10.078;2023-03-23T07:28:31;3.08;;;1.30;;
50102;SDS011;35993;52.604;10.078;2023-03-23T07:31:04;3.90;;;1.40;;
50102;SDS011;35993;52.604;10.078;2023-03-23T07:33:30;2.80;;;1.60;;
50102;SDS011;35993;52.604;10.078;2023-03-23T07:35:58;4.63;;;1.35;;
50102;SDS011;35993;52.604;10.078;2023-03-23T07:38:25;2.90;;;1.40;;
50102;SDS011;35993;52.604;10.078;2023-03-23T07:40:53;2.40;;;1.10;;
50102;SDS011;35993;52.604;10.078;2023-03-23T07:43:19;3.50;;;1.40;;
50102;SDS011;35993;52.604;10.078;2023-03-23T07:46:04;1.98;;;1.17;;
50102;SDS011;35993;52.604;10.078;2023-03-23T07:48:48;2.20;;;1.20;;
50102;SDS011;35993;52.604;10.078;2023-03-23T07:51:14;1.58;;;1.23;;
50102;SDS011;35993;52.604;10.078;2023-03-23T07:53:42;2.20;;;1.15;;
50102;SDS011;35993;52.604;10.078;2023-03-23T07:56:28;3.65;;;1.30;;
50102;SDS011;35993;52.604;10.078;2023-03-23T07:59:04;2.22;;;1.20;;
50102;SDS011;35993;52.604;10.078;2023-03-23T08:01:30;2.20;;;1.10;;
50102;SDS011;35993;52.604;10.078;2023-03-23T08:04:15;2.95;;;1.30;;
50102;SDS011;35993;52.604;10.078;2023-03-23T08:07:06;2.08;;;1.48;;
50102;SDS011;35993;52.604;10.078;2023-03-23T08:09:48;3.85;;;1.40;;
50102;SDS011;35993;52.604;10.078;2023-03-23T08:12:43;1.83;;;1.27;;
50102;SDS011;35993;52.604;10.078;2023-03-23T08:15:24;4.82;;;1.55;;
50102;SDS011;35993;52.604;10.078;2023-03-23T08:18:07;3.85;;;1.60;;
50102;SDS011;35993;52.604;10.078;2023-03-23T08:21:03;3.28;;;1.40;;
50102;SDS011;35993;52.604;10.078;2023-03-23T08:23:50;3.20;;;1.33;;
50102;SDS011;35993;52.604;10.078;2023-03-23T08:26:27;4.57;;;1.63;;
50102;SDS011;35993;52.604;10.078;2023-03-23T08:28:53;2.80;;;1.48;;
50102;SDS011;35993;52.604;10.078;2023-03-23T08:31:38;2.90;;;1.50;;
50102;SDS011;35993;52.604;10.078;2023-03-23T08:34:23;4.15;;;1.60;;
50102;SDS011;35993;52.604;10.078;2023-03-23T08:37:03;2.15;;;1.50;;
50102;SDS011;35993;52.604;10.078;2023-03-23T08:39:52;3.92;;;1.50;;
50102;SDS011;35993;52.604;10.078;2023-03-23T08:42:37;2.28;;;1.58;;
50102;SDS011;35993;52.604;10.078;2023-03-23T08:45:32;2.75;;;1.50;;
50102;SDS011;35993;52.604;10.078;2023-03-23T08:48:12;3.05;;;1.73;;
50102;SDS011;35993;52.604;10.078;2023-03-23T08:50:57;4.05;;;1.70;;
50102;SDS011;35993;52.604;10.078;2023-03-23T08:53:44;3.20;;;1.40;;
50102;SDS011;35993;52.604;10.078;2023-03-23T08:56:28;4.70;;;1.60;;
50102;SDS011;35993;52.604;10.078;2023-03-23T08:59:26;4.90;;;1.80;;
50102;SDS011;35993;52.604;10.078;2023-03-23T09:01:59;3.83;;;1.73;;
50102;SDS011;35993;52.604;10.078;2023-03-23T09:04:35;6.20;;;1.67;;
50102;SDS011;35993;52.604;10.078;2023-03-23T09:07:28;4.20;;;1.80;;
50102;SDS011;35993;52.604;10.078;2023-03-23T09:09:53;3.38;;;1.70;;
50102;SDS011;35993;52.604;10.078;2023-03-23T09:12:21;3.90;;;1.70;;
50102;SDS011;35993;52.604;10.078;2023-03-23T09:14:48;4.43;;;1.90;;
50102;SDS011;35993;52.604;10.078;2023-03-23T09:17:13;4.00;;;1.73;;
50102;SDS011;35993;52.604;10.078;2023-03-23T09:19:39;2.53;;;1.50;;
50102;SDS011;35993;52.604;10.078;2023-03-23T09:22:05;4.15;;;1.83;;
50102;SDS011;35993;52.604;10.078;2023-03-23T09:24:30;3.35;;;1.52;;
50102;SDS011;35993;52.604;10.078;2023-03-23T09:26:56;3.80;;;1.80;;
50102;SDS011;35993;52.604;10.078;2023-03-23T09:29:24;4.43;;;2.00;;
50102;SDS011;35993;52.604;10.078;2023-03-23T09:31:50;4.53;;;1.75;;
50102;SDS011;35993;52.604;10.078;2023-03-23T09:34:16;11.45;;;2.17;;
50102;SDS011;35993;52.604;10.078;2023-03-23T09:36:44;5.55;;;1.77;;
50102;SDS011;35993;52.604;10.078;2023-03-23T09:39:12;3.63;;;1.88;;
50102;SDS011;35993;52.604;10.078;2023-03-23T09:47:18;5.13;;;1.90;;
50102;SDS011;35993;52.604;10.078;2023-03-23T09:49:57;4.15;;;1.80;;
50102;SDS011;35993;52.604;10.078;2023-03-23T09:53:10;5.28;;;1.95;;
50102;SDS011;35993;52.604;10.078;2023-03-23T09:55:21;5.40;;;1.80;;
50102;SDS011;35993;52.604;10.078;2023-03-23T09:58:02;3.00;;;1.60;;
50102;SDS011;35993;52.604;10.078;2023-03-23T10:00:37;3.05;;;1.58;;
50102;SDS011;35993;52.604;10.078;2023-03-23T10:03:13;4.40;;;1.88;;
50102;SDS011;35993;52.604;10.078;2023-03-23T10:05:45;3.85;;;1.60;;
50102;SDS011;35993;52.604;10.078;2023-03-23T10:08:13;4.20;;;1.77;;
50102;SDS011;35993;52.604;10.078;2023-03-23T10:16:03;4.47;;;1.88;;
50102;SDS011;35993;52.604;10.078;2023-03-23T10:18:43;4.65;;;1.70;;
50102;SDS011;35993;52.604;10.078;2023-03-23T10:21:15;5.72;;;1.80;;
50102;SDS011;35993;52.604;10.078;2023-03-23T10:30:01;3.55;;;1.73;;
50102;SDS011;35993;52.604;10.078;2023-03-23T10:32:44;3.88;;;2.10;;
50102;SDS011;35993;52.604;10.078;2023-03-23T10:35:18;5.05;;;1.60;;
50102;SDS011;35993;52.604;10.078;2023-03-23T10:37:50;3.80;;;1.60;;
50102;SDS011;35993;52.604;10.078;2023-03-23T10:40:24;4.43;;;1.52;;
50102;SDS011;35993;52.604;10.078;2023-03-23T10:42:53;6.38;;;2.03;;
50102;SDS011;35993;52.604;10.078;2023-03-23T10:45:23;5.30;;;1.80;;
50102;SDS011;35993;52.604;10.078;2023-03-23T10:47:56;4.53;;;1.80;;
50102;SDS011;35993;52.604;10.078;2023-03-23T10:50:32;4.93;;;2.00;;
50102;SDS011;35993;52.604;10.078;2023-03-23T10:53:00;7.70;;;2.10;;
50102;SDS011;35993;52.604;10.078;2023-03-23T10:55:37;6.10;;;1.75;;
50102;SDS011;35993;52.604;10.078;2023-03-23T10:58:07;5.28;;;1.90;;
50102;SDS011;35993;52.604;10.078;2023-03-23T11:00:40;7.80;;;2.00;;
50102;SDS011;35993;52.604;10.078;2023-03-23T11:05:43;4.43;;;1.83;;
50102;SDS011;35993;52.604;10.078;2023-03-23T11:10:47;5.40;;;1.77;;
50102;SDS011;35993;52.604;10.078;2023-03-23T11:13:16;7.10;;;2.00;;
50102;SDS011;35993;52.604;10.078;2023-03-23T11:15:46;5.00;;;1.90;;
50102;SDS011;35993;52.604;10.078;2023-03-23T11:18:20;5.53;;;1.73;;
50102;SDS011;35993;52.604;10.078;2023-03-23T11:20:52;5.53;;;1.70;;
50102;SDS011;35993;52.604;10.078;2023-03-23T11:23:26;2.38;;;1.20;;
50102;SDS011;35993;52.604;10.078;2023-03-23T11:31:42;3.03;;;1.50;;
50102;SDS011;35993;52.604;10.078;2023-03-23T11:36:41;2.95;;;1.17;;
50102;SDS011;35993;52.604;10.078;2023-03-23T11:39:26;3.20;;;1.33;;
50102;SDS011;35993;52.604;10.078;2023-03-23T11:41:54;4.07;;;1.40;;
50102;SDS011;35993;52.604;10.078;2023-03-23T11:44:22;5.22;;;1.45;;
50102;SDS011;35993;52.604;10.078;2023-03-23T11:52:01;3.63;;;1.42;;
50102;SDS011;35993;52.604;10.078;2023-03-23T11:54:41;3.13;;;1.05;;
50102;SDS011;35993;52.604;10.078;2023-03-23T11:57:11;1.95;;;1.25;;
50102;SDS011;35993;52.604;10.078;2023-03-23T11:59:39;4.50;;;1.30;;
50102;SDS011;35993;52.604;10.078;2023-03-23T12:02:12;3.08;;;1.33;;
50102;SDS011;35993;52.604;10.078;2023-03-23T12:15:42;6.30;;;3.28;;
50102;SDS011;35993;52.604;10.078;2023-03-23T12:26:24;5.40;;;2.35;;
50102;SDS011;35993;52.604;10.078;2023-03-23T12:29:16;7.85;;;3.10;;
50102;SDS011;35993;52.604;10.078;2023-03-23T12:39:50;5.13;;;1.52;;
50102;SDS011;35993;52.604;10.078;2023-03-23T12:48:28;7.47;;;2.78;;
50102;SDS011;35993;52.604;10.078;2023-03-23T12:53:49;5.75;;;2.10;;
50102;SDS011;35993;52.604;10.078;2023-03-23T12:56:31;3.92;;;2.05;;
50102;SDS011;35993;52.604;10.078;2023-03-23T12:59:03;6.50;;;2.20;;
50102;SDS011;35993;52.604;10.078;2023-03-23T13:01:37;5.78;;;2.55;;
50102;SDS011;35993;52.604;10.078;2023-03-23T13:04:14;4.25;;;1.83;;
50102;SDS011;35993;52.604;10.078;2023-03-23T13:06:44;5.18;;;1.80;;
50102;SDS011;35993;52.604;10.078;2023-03-23T13:11:43;5.22;;;1.50;;
50102;SDS011;35993;52.604;10.078;2023-03-23T13:22:29;4.47;;;1.80;;
50102;SDS011;35993;52.604;10.078;2023-03-23T13:25:03;4.40;;;2.60;;
50102;SDS011;35993;52.604;10.078;2023-03-23T13:27:34;3.78;;;1.50;;
50102;SDS011;35993;52.604;10.078;2023-03-23T13:30:00;4.38;;;1.60;;
50102;SDS011;35993;52.604;10.078;2023-03-23T13:32:34;2.55;;;1.30;;
50102;SDS011;35993;52.604;10.078;2023-03-23T13:35:05;1.98;;;1.30;;
50102;SDS011;35993;52.604;10.078;2023-03-23T13:37:45;3.20;;;1.58;;
50102;SDS011;35993;52.604;10.078;2023-03-23T13:40:16;2.17;;;1.25;;
50102;SDS011;35993;52.604;10.078;2023-03-23T13:42:54;2.88;;;1.55;;
50102;SDS011;35993;52.604;10.078;2023-03-23T13:45:35;5.57;;;1.42;;
50102;SDS011;35993;52.604;10.078;2023-03-23T13:50:44;2.72;;;1.30;;
50102;SDS011;35993;52.604;10.078;2023-03-23T13:53:14;2.63;;;1.52;;
50102;SDS011;35993;52.604;10.078;2023-03-23T13:55:50;6.22;;;3.88;;
50102;SDS011;35993;52.604;10.078;2023-03-23T13:58:29;2.35;;;1.20;;
50102;SDS011;35993;52.604;10.078;2023-03-23T14:01:09;1.95;;;1.20;;
50102;SDS011;35993;52.604;10.078;2023-03-23T14:03:42;3.30;;;1.10;;
50102;SDS011;35993;52.604;10.078;2023-03-23T14:06:24;3.03;;;0.90;;
50102;SDS011;35993;52.604;10.078;2023-03-23T14:09:06;1.80;;;0.70;;
50102;SDS011;35993;52.604;10.078;2023-03-23T14:11:45;3.28;;;0.70;;
50102;SDS011;35993;52.604;10.078;2023-03-23T14:14:20;3.22;;;1.23;;
50102;SDS011;35993;52.604;10.078;2023-03-23T14:16:50;1.67;;;0.80;;
50102;SDS011;35993;52.604;10.078;2023-03-23T14:21:59;3.20;;;0.85;;
50102;SDS011;35993;52.604;10.078;2023-03-23T14:24:30;3.58;;;1.00;;
50102;SDS011;35993;52.604;10.078;2023-03-23T14:29:30;1.48;;;0.68;;
50102;SDS011;35993;52.604;10.078;2023-03-23T14:31:57;2.33;;;0.90;;
50102;SDS011;35993;52.604;10.078;2023-03-23T14:34:27;1.27;;;0.68;;
50102;SDS011;35993;52.604;10.078;2023-03-23T14:36:55;2.63;;;0.70;;
50102;SDS011;35993;52.604;10.078;2023-03-23T14:39:24;1.55;;;0.63;;
50102;SDS011;35993;52.604;10.078;2023-03-23T14:41:55;1.85;;;0.80;;
50102;SDS011;35993;52.604;10.078;2023-03-23T14:44:28;0.57;;;0.50;;
50102;SDS011;35993;52.604;10.078;2023-03-23T14:46:56;1.33;;;0.70;;
50102;SDS011;35993;52.604;10.078;2023-03-23T14:49:34;1.00;;;0.70;;
50102;SDS011;35993;52.604;10.078;2023-03-23T14:52:10;1.20;;;0.60;;
50102;SDS011;35993;52.604;10.078;2023-03-23T14:54:37;1.10;;;0.60;;
50102;SDS011;35993;52.604;10.078;2023-03-23T14:57:25;1.15;;;0.80;;
50102;SDS011;35993;52.604;10.078;2023-03-23T14:59:55;0.88;;;0.52;;
50102;SDS011;35993;52.604;10.078;2023-03-23T15:04:58;1.88;;;0.70;;
50102;SDS011;35993;52.604;10.078;2023-03-23T15:07:29;1.05;;;0.70;;
50102;SDS011;35993;52.604;10.078;2023-03-23T15:09:58;1.90;;;1.08;;
50102;SDS011;35993;52.604;10.078;2023-03-23T15:12:26;0.68;;;0.57;;
50102;SDS011;35993;52.604;10.078;2023-03-23T15:14:55;1.88;;;0.80;;
50102;SDS011;35993;52.604;10.078;2023-03-23T15:17:24;2.17;;;0.90;;
50102;SDS011;35993;52.604;10.078;2023-03-23T15:19:52;1.45;;;0.88;;
50102;SDS011;35993;52.604;10.078;2023-03-23T15:22:22;3.28;;;0.70;;
50102;SDS011;35993;52.604;10.078;2023-03-23T15:27:44;1.83;;;0.75;;
50102;SDS011;35993;52.604;10.078;2023-03-23T15:32:53;1.67;;;0.88;;
50102;SDS011;35993;52.604;10.078;2023-03-23T15:37:49;4.40;;;2.00;;
50102;SDS011;35993;52.604;10.078;2023-03-23T15:40:22;6.05;;;2.88;;
50102;SDS011;35993;52.604;10.078;2023-03-23T15:42:50;2.28;;;1.05;;
50102;SDS011;35993;52.604;10.078;2023-03-23T15:45:33;12.15;;;6.07;;
50102;SDS011;35993;52.604;10.078;2023-03-23T15:48:10;1.98;;;1.17;;
50102;SDS011;35993;52.604;10.078;2023-03-23T15:50:39;2.28;;;1.02;;
50102;SDS011;35993;52.604;10.078;2023-03-23T15:53:18;1.83;;;0.85;;
50102;SDS011;35993;52.604;10.078;2023-03-23T15:55:52;2.35;;;1.10;;
50102;SDS011;35993;52.604;10.078;2023-03-23T15:58:18;0.80;;;0.70;;
50102;SDS011;35993;52.604;10.078;2023-03-23T16:00:44;3.15;;;1.17;;
50102;SDS011;35993;52.604;10.078;2023-03-23T16:03:12;2.22;;;1.00;;
50102;SDS011;35993;52.604;10.078;2023-03-23T16:05:44;1.58;;;1.00;;
50102;SDS011;35993;52.604;10.078;2023-03-23T16:08:10;0.95;;;0.85;;
50102;SDS011;35993;52.604;10.078;2023-03-23T16:10:36;3.50;;;1.58;;
50102;SDS011;35993;52.604;10.078;2023-03-23T16:13:02;2.22;;;1.00;;
50102;SDS011;35993;52.604;10.078;2023-03-23T16:15:29;1.35;;;0.88;;
50102;SDS011;35993;52.604;10.078;2023-03-23T16:17:55;2.30;;;1.13;;
50102;SDS011;35993;52.604;10.078;2023-03-23T16:20:21;2.60;;;0.88;;
50102;SDS011;35993;52.604;10.078;2023-03-23T16:22:48;2.53;;;1.17;;
50102;SDS011;35993;52.604;10.078;2023-03-23T16:25:15;2.25;;;1.00;;
50102;SDS011;35993;52.604;10.078;2023-03-23T16:27:42;2.28;;;1.10;;
50102;SDS011;35993;52.604;10.078;2023-03-23T16:30:18;2.53;;;1.05;;
50102;SDS011;35993;52.604;10.078;2023-03-23T16:32:47;2.75;;;0.90;;
50102;SDS011;35993;52.604;10.078;2023-03-23T16:35:13;2.83;;;0.88;;
50102;SDS011;35993;52.604;10.078;2023-03-23T16:37:43;2.83;;;0.70;;
50102;SDS011;35993;52.604;10.078;2023-03-23T16:40:19;3.17;;;1.08;;
50102;SDS011;35993;52.604;10.078;2023-03-23T16:42:45;3.28;;;1.50;;
50102;SDS011;35993;52.604;10.078;2023-03-23T16:45:12;1.27;;;0.90;;
50102;SDS011;35993;52.604;10.078;2023-03-23T16:47:38;2.45;;;1.15;;
50102;SDS011;35993;52.604;10.078;2023-03-23T16:50:05;1.83;;;0.90;;
50102;SDS011;35993;52.604;10.078;2023-03-23T16:52:33;2.67;;;1.27;;
50102;SDS011;35993;52.604;10.078;2023-03-23T16:54:59;6.15;;;1.30;;
50102;SDS011;35993;52.604;10.078;2023-03-23T16:57:25;1.73;;;1.00;;
50102;SDS011;35993;52.604;10.078;2023-03-23T16:59:51;2.63;;;1.20;;
50102;SDS011;35993;52.604;10.078;2023-03-23T17:02:17;2.10;;;1.13;;
50102;SDS011;35993;52.604;10.078;2023-03-23T17:04:43;3.50;;;1.50;;
50102;SDS011;35993;52.604;10.078;2023-03-23T17:07:10;3.25;;;1.40;;
50102;SDS011;35993;52.604;10.078;2023-03-23T17:09:37;1.95;;;1.30;;
50102;SDS011;35993;52.604;10.078;2023-03-23T17:12:03;4.85;;;2.80;;
50102;SDS011;35993;52.604;10.078;2023-03-23T17:14:29;3.60;;;1.75;;
50102;SDS011;35993;52.604;10.078;2023-03-23T17:16:55;3.05;;;1.48;;